createdAt,value
2023-04-26T00:01:12.278Z,5.76
2023-04-26T00:03:41.142Z,5.69
2023-04-26T00:06:10.157Z,5.64
2023-04-26T00:08:39.097Z,5.58
2023-04-26T00:11:07.954Z,5.54
2023-04-26T00:13:38.071Z,5.53
2023-04-26T00:16:08.208Z,5.48
2023-04-26T00:18:37.924Z,5.44
2023-04-26T00:21:06.845Z,5.42
2023-04-26T00:23:38.648Z,5.38
2023-04-26T00:26:06.145Z,5.32
2023-04-26T00:28:36.166Z,5.24
2023-04-26T00:31:07.055Z,5.16
2023-04-26T00:33:34.458Z,5.06
2023-04-26T00:36:01.990Z,4.94
2023-04-26T00:38:31.402Z,4.83
2023-04-26T00:41:00.766Z,4.77
2023-04-26T00:43:32.057Z,4.73
2023-04-26T00:46:00.355Z,4.68
2023-04-26T00:48:28.024Z,4.64
2023-04-26T00:50:56.342Z,4.59
2023-04-26T00:53:25.278Z,4.49
2023-04-26T00:55:53.960Z,4.40
2023-04-26T00:58:22.968Z,4.32
2023-04-26T01:00:51.820Z,4.27
2023-04-26T01:03:19.932Z,4.19
2023-04-26T01:05:49.257Z,4.12
2023-04-26T01:08:21.354Z,4.04
2023-04-26T01:10:50.820Z,3.98
2023-04-26T01:13:20.136Z,3.96
2023-04-26T01:15:49.751Z,3.91
2023-04-26T01:18:18.986Z,3.81
2023-04-26T01:20:49.111Z,3.72
2023-04-26T01:23:18.825Z,3.65
2023-04-26T01:25:48.826Z,3.58
2023-04-26T01:28:19.969Z,3.53
2023-04-26T01:30:49.427Z,3.49
2023-04-26T01:33:17.119Z,3.50
2023-04-26T01:35:49.008Z,3.47
2023-04-26T01:38:17.670Z,3.39
2023-04-26T01:40:48.684Z,3.31
2023-04-26T01:43:20.737Z,3.22
2023-04-26T01:45:48.589Z,3.16
2023-04-26T01:48:34.098Z,3.14
2023-04-26T01:51:21.591Z,3.11
2023-04-26T01:53:49.764Z,3.04
2023-04-26T01:56:19.619Z,3.00
2023-04-26T01:58:47.196Z,2.96
2023-04-26T02:01:14.612Z,2.95
2023-04-26T02:03:44.420Z,2.98
2023-04-26T02:06:11.910Z,3.03
2023-04-26T02:08:39.344Z,3.07
2023-04-26T02:11:09.802Z,3.13
2023-04-26T02:13:37.860Z,3.17
2023-04-26T02:16:07.424Z,3.23
2023-04-26T02:18:40.563Z,3.29
2023-04-26T02:21:08.948Z,3.32
2023-04-26T02:23:39.170Z,3.32
2023-04-26T02:26:08.179Z,3.31
2023-04-26T02:28:46.859Z,3.32
2023-04-26T02:31:16.103Z,3.32
2023-04-26T02:33:44.667Z,3.34
2023-04-26T02:36:13.956Z,3.37
2023-04-26T02:38:44.470Z,3.41
2023-04-26T02:41:13.368Z,3.44
2023-04-26T02:43:40.720Z,3.50
2023-04-26T02:46:09.602Z,3.52
2023-04-26T02:48:38.390Z,3.53
2023-04-26T02:51:08.968Z,3.53
2023-04-26T02:53:37.405Z,3.50
2023-04-26T02:56:05.715Z,3.46
2023-04-26T02:58:34.531Z,3.42
2023-04-26T03:01:03.985Z,3.40
2023-04-26T03:03:35.084Z,3.36
2023-04-26T03:06:05.047Z,3.31
2023-04-26T03:08:34.727Z,3.23
2023-04-26T03:11:03.590Z,3.15
2023-04-26T03:13:32.000Z,3.09
2023-04-26T03:16:03.319Z,3.03
2023-04-26T03:18:33.384Z,2.99
2023-04-26T03:21:03.774Z,2.99
2023-04-26T03:23:34.537Z,2.98
2023-04-26T03:26:03.322Z,2.99
2023-04-26T03:28:31.649Z,2.97
2023-04-26T03:31:01.521Z,2.88
2023-04-26T03:33:33.042Z,2.78
2023-04-26T03:36:04.993Z,2.71
2023-04-26T03:38:32.213Z,2.69
2023-04-26T03:41:00.910Z,2.65
2023-04-26T03:43:30.428Z,2.62
2023-04-26T03:46:00.685Z,2.55
2023-04-26T03:48:30.254Z,2.49
2023-04-26T03:51:02.369Z,2.45
2023-04-26T03:53:32.180Z,2.39
2023-04-26T03:56:01.215Z,2.32
2023-04-26T03:58:32.137Z,2.30
2023-04-26T04:01:00.820Z,2.32
2023-04-26T04:03:30.263Z,2.37
2023-04-26T04:06:00.300Z,2.44
2023-04-26T04:08:31.750Z,2.49
2023-04-26T04:11:02.544Z,2.57
2023-04-26T04:13:35.684Z,2.66
2023-04-26T04:16:04.611Z,2.74
2023-04-26T04:18:33.384Z,2.86
2023-04-26T04:21:04.634Z,2.99
2023-04-26T04:23:32.639Z,3.11
2023-04-26T04:26:03.587Z,3.25
2023-04-26T04:28:34.041Z,3.37
2023-04-26T04:31:06.467Z,3.47
2023-04-26T04:33:36.030Z,3.55
2023-04-26T04:36:03.935Z,3.61
2023-04-26T04:38:34.147Z,3.69
2023-04-26T04:41:06.182Z,3.78
2023-04-26T04:43:34.985Z,3.86
2023-04-26T04:46:03.094Z,3.99
2023-04-26T04:48:30.722Z,4.08
2023-04-26T04:51:01.992Z,4.13
2023-04-26T04:53:31.262Z,4.19
2023-04-26T04:56:02.476Z,4.38
2023-04-26T04:58:33.526Z,4.61
2023-04-26T05:01:02.667Z,4.78
2023-04-26T05:03:33.728Z,4.80
2023-04-26T05:06:02.406Z,4.84
2023-04-26T05:08:31.239Z,5.06
2023-04-26T05:11:03.509Z,5.19
2023-04-26T05:13:31.367Z,5.36
2023-04-26T05:16:00.383Z,5.43
2023-04-26T05:18:29.810Z,5.57
2023-04-26T05:20:58.932Z,5.68
2023-04-26T05:23:29.499Z,5.79
2023-04-26T05:26:02.204Z,6.10
2023-04-26T05:28:49.678Z,6.50
2023-04-26T05:31:38.663Z,6.60
2023-04-26T05:34:12.323Z,6.64
2023-04-26T05:36:44.286Z,6.98
2023-04-26T05:39:12.278Z,6.99
2023-04-26T05:41:40.081Z,6.95
2023-04-26T05:44:08.617Z,6.96
2023-04-26T05:46:37.365Z,7.14
2023-04-26T05:49:04.940Z,7.29
2023-04-26T05:51:36.953Z,7.46
2023-04-26T05:54:05.313Z,7.54
2023-04-26T05:56:35.068Z,7.66
2023-04-26T05:59:04.516Z,7.71
2023-04-26T06:01:35.943Z,7.82
2023-04-26T06:04:03.946Z,7.91
2023-04-26T06:06:41.867Z,7.97
2023-04-26T06:09:13.863Z,8.12
2023-04-26T06:11:44.685Z,8.17
2023-04-26T06:14:20.038Z,8.25
2023-04-26T06:16:59.353Z,8.36
2023-04-26T06:19:30.001Z,8.68
2023-04-26T06:21:59.180Z,8.65
2023-04-26T06:24:31.609Z,8.60
2023-04-26T06:27:00.450Z,8.66
2023-04-26T06:29:28.701Z,8.76
2023-04-26T06:31:57.900Z,8.86
2023-04-26T06:34:29.715Z,9.29
2023-04-26T06:36:57.568Z,9.46
2023-04-26T06:39:26.718Z,9.54
2023-04-26T06:41:56.249Z,9.43
2023-04-26T06:44:52.971Z,9.41
2023-04-26T06:47:25.282Z,9.58
2023-04-26T06:50:23.777Z,9.84
2023-04-26T06:52:51.402Z,9.91
2023-04-26T06:55:20.325Z,10.06
2023-04-26T06:57:50.282Z,10.09
2023-04-26T07:00:19.933Z,10.01
2023-04-26T07:02:47.473Z,10.22
2023-04-26T07:05:17.114Z,10.31
2023-04-26T07:07:46.941Z,10.31
2023-04-26T07:10:15.117Z,10.63
2023-04-26T07:12:45.167Z,11.27
2023-04-26T07:15:14.742Z,13.11
2023-04-26T07:17:43.871Z,13.82
2023-04-26T07:20:12.936Z,12.97
2023-04-26T07:22:41.593Z,13.65
2023-04-26T07:25:10.919Z,14.78
2023-04-26T07:27:39.737Z,14.28
2023-04-26T07:30:07.686Z,14.55
2023-04-26T07:32:36.902Z,13.77
2023-04-26T07:35:07.406Z,15.31
2023-04-26T07:37:37.600Z,15.75
2023-04-26T07:40:08.941Z,17.23
2023-04-26T07:42:39.452Z,18.72
2023-04-26T07:45:17.174Z,18.18
2023-04-26T07:47:46.328Z,16.31
2023-04-26T07:50:15.102Z,14.91
2023-04-26T07:52:44.565Z,13.89
2023-04-26T07:55:12.930Z,13.44
2023-04-26T07:57:43.379Z,13.11
2023-04-26T08:00:22.293Z,12.32
2023-04-26T08:02:51.981Z,12.13
2023-04-26T08:05:22.947Z,12.73
2023-04-26T08:07:50.587Z,12.29
2023-04-26T08:10:17.968Z,11.84
2023-04-26T08:12:48.619Z,11.63
2023-04-26T08:15:16.153Z,11.40
2023-04-26T08:17:44.459Z,11.20
2023-04-26T08:20:15.582Z,11.04
2023-04-26T08:22:45.429Z,10.70
2023-04-26T08:25:12.996Z,12.00
2023-04-26T08:27:44.345Z,13.90
2023-04-26T08:30:12.581Z,16.07
2023-04-26T08:32:43.878Z,17.21
2023-04-26T08:35:12.213Z,16.27
2023-04-26T08:37:41.020Z,15.28
2023-04-26T08:40:10.068Z,14.52
2023-04-26T08:42:44.193Z,13.47
2023-04-26T08:45:12.326Z,14.05
2023-04-26T08:47:50.034Z,13.79
2023-04-26T08:50:22.271Z,13.09
2023-04-26T08:52:51.183Z,12.28
2023-04-26T08:55:21.292Z,11.77
2023-04-26T08:57:49.577Z,11.40
2023-04-26T09:00:21.250Z,11.14
2023-04-26T09:02:52.925Z,11.12
2023-04-26T09:05:26.773Z,11.11
2023-04-26T09:08:02.654Z,11.02
2023-04-26T09:10:30.821Z,10.77
2023-04-26T09:12:59.174Z,10.78
2023-04-26T09:15:28.189Z,10.76
2023-04-26T09:17:58.698Z,10.58
2023-04-26T09:20:30.984Z,10.33
2023-04-26T09:23:07.197Z,10.04
2023-04-26T09:25:37.012Z,9.98
2023-04-26T09:28:18.768Z,10.70
2023-04-26T09:30:50.045Z,14.00
2023-04-26T09:33:21.859Z,16.53
2023-04-26T09:35:49.745Z,16.80
2023-04-26T09:38:18.946Z,15.65
2023-04-26T09:40:48.744Z,14.44
2023-04-26T09:43:19.654Z,13.33
2023-04-26T09:45:56.165Z,12.45
2023-04-26T09:48:30.034Z,11.74
2023-04-26T09:50:59.270Z,11.47
2023-04-26T09:53:39.861Z,11.04
2023-04-26T09:56:12.855Z,10.51
2023-04-26T09:59:02.300Z,10.16
2023-04-26T10:01:31.281Z,10.01
2023-04-26T10:04:04.378Z,9.99
2023-04-26T10:06:32.735Z,10.01
2023-04-26T10:09:04.965Z,10.18
2023-04-26T10:11:34.254Z,10.46
2023-04-26T10:14:02.794Z,10.83
2023-04-26T10:16:30.821Z,11.03
2023-04-26T10:18:59.206Z,11.07
2023-04-26T10:21:30.138Z,10.87
2023-04-26T10:23:59.290Z,10.77
2023-04-26T10:26:45.869Z,10.71
2023-04-26T10:29:14.245Z,10.58
2023-04-26T10:32:00.453Z,10.54
2023-04-26T10:34:31.664Z,11.30
2023-04-26T10:37:13.104Z,12.31
2023-04-26T10:39:44.557Z,13.04
2023-04-26T10:42:24.147Z,13.29
2023-04-26T10:44:55.406Z,13.04
2023-04-26T10:47:36.931Z,12.60
2023-04-26T10:54:37.490Z,11.92
2023-04-26T10:57:07.100Z,11.99
2023-04-26T11:00:05.655Z,12.26
2023-04-26T11:02:54.787Z,12.37
2023-04-26T11:05:42.489Z,12.36
2023-04-26T11:08:21.887Z,12.08
2023-04-26T11:11:06.110Z,11.97
2023-04-26T11:13:44.132Z,11.84
2023-04-26T11:16:14.759Z,11.81
2023-04-26T11:18:46.999Z,11.78
2023-04-26T11:21:17.922Z,11.86
2023-04-26T11:23:54.309Z,11.62
2023-04-26T11:26:22.859Z,11.23
2023-04-26T11:28:52.195Z,10.70
2023-04-26T11:31:21.998Z,10.30
2023-04-26T11:33:52.242Z,10.04
2023-04-26T11:36:23.382Z,10.08
2023-04-26T11:38:53.315Z,10.09
2023-04-26T11:41:24.380Z,10.22
2023-04-26T11:43:56.856Z,10.35
2023-04-26T11:46:25.018Z,10.44
2023-04-26T11:48:53.126Z,10.54
2023-04-26T11:51:22.735Z,10.30
2023-04-26T11:53:52.501Z,10.18
2023-04-26T11:56:26.581Z,10.24
2023-04-26T11:58:58.342Z,10.69
2023-04-26T12:01:28.850Z,11.09
2023-04-26T12:03:59.244Z,11.24
2023-04-26T12:06:33.417Z,11.16
2023-04-26T12:09:05.707Z,10.97
2023-04-26T12:11:35.144Z,10.94
2023-04-26T12:14:02.986Z,10.80
2023-04-26T12:16:35.692Z,10.70
2023-04-26T12:19:06.783Z,10.73
2023-04-26T12:21:43.887Z,10.81
2023-04-26T12:24:24.366Z,10.62
2023-04-26T12:26:52.767Z,10.82
2023-04-26T12:29:22.367Z,11.20
2023-04-26T12:31:52.493Z,11.53
2023-04-26T12:34:35.295Z,11.87
2023-04-26T12:37:45.854Z,12.24
2023-04-26T12:40:40.708Z,12.48
2023-04-26T12:43:18.612Z,12.89
2023-04-26T12:50:27.624Z,14.35
2023-04-26T12:52:58.382Z,14.67
2023-04-26T12:55:28.967Z,14.86
2023-04-26T12:57:59.950Z,14.87
2023-04-26T13:00:29.190Z,14.77
2023-04-26T13:02:58.942Z,14.76
2023-04-26T13:05:26.894Z,14.66
2023-04-26T13:07:55.111Z,14.25
2023-04-26T13:10:24.308Z,13.78
2023-04-26T13:17:50.533Z,12.29
2023-04-26T13:20:19.482Z,11.75
2023-04-26T13:22:52.531Z,11.42
2023-04-26T13:25:44.475Z,11.12
2023-04-26T13:28:15.108Z,10.92
2023-04-26T13:30:45.752Z,10.94
2023-04-26T13:33:16.578Z,10.81
2023-04-26T13:35:47.133Z,10.55
2023-04-26T13:38:18.559Z,10.38
2023-04-26T13:56:59.713Z,10.51
2023-04-26T13:59:29.374Z,10.52
2023-04-26T14:02:48.282Z,10.52
2023-04-26T14:05:31.866Z,10.82
2023-04-26T14:08:00.687Z,10.87
2023-04-26T14:10:29.774Z,10.92
2023-04-26T14:13:12.481Z,10.75
2023-04-26T14:15:41.421Z,10.58
2023-04-26T14:18:12.282Z,10.62
2023-04-26T14:20:43.200Z,10.79
2023-04-26T14:23:12.046Z,10.76
2023-04-26T14:25:43.423Z,10.82
2023-04-26T14:28:16.167Z,11.20
2023-04-26T14:30:44.571Z,11.48
2023-04-26T14:37:01.276Z,11.64
2023-04-26T14:39:30.460Z,11.64
2023-04-26T14:42:03.856Z,11.66
2023-04-26T14:44:48.022Z,11.75
2023-04-26T14:47:20.993Z,11.72
2023-04-26T14:49:58.510Z,11.57
2023-04-26T14:52:29.392Z,11.31
2023-04-26T14:55:00.915Z,11.22
2023-04-26T14:57:32.345Z,11.30
2023-04-26T15:00:08.887Z,11.49
2023-04-26T15:02:40.376Z,11.51
2023-04-26T15:05:16.448Z,11.60
2023-04-26T15:07:46.971Z,11.66
2023-04-26T15:10:20.659Z,11.65
2023-04-26T15:12:53.991Z,11.96
2023-04-26T15:15:26.184Z,11.96
2023-04-26T15:17:58.195Z,12.13
2023-04-26T15:20:51.999Z,11.98
2023-04-26T15:23:22.799Z,11.83
2023-04-26T15:25:52.461Z,11.71
2023-04-26T15:28:24.353Z,11.50
2023-04-26T15:31:12.046Z,11.22
2023-04-26T15:33:41.949Z,10.89
2023-04-26T15:36:13.119Z,10.83
2023-04-26T15:38:44.989Z,10.91
2023-04-26T15:41:15.528Z,11.07
2023-04-26T15:43:55.924Z,11.26
2023-04-26T15:46:29.233Z,11.36
2023-04-26T15:48:57.823Z,11.41
2023-04-26T15:51:29.187Z,11.24
2023-04-26T15:54:03.378Z,11.23
2023-04-26T15:57:00.385Z,11.29
2023-04-26T15:59:30.716Z,11.17
2023-04-26T16:02:07.445Z,11.24
2023-04-26T16:04:38.493Z,11.57
2023-04-26T16:07:07.711Z,11.94
2023-04-26T16:09:39.201Z,12.10
2023-04-26T16:12:09.590Z,12.03
2023-04-26T16:14:42.015Z,11.77
2023-04-26T16:17:24.508Z,11.54
2023-04-26T16:19:54.549Z,11.46
2023-04-26T16:22:25.887Z,11.48
2023-04-26T16:24:57.521Z,11.43
2023-04-26T16:27:28.588Z,11.34
2023-04-26T16:29:58.261Z,11.19
2023-04-26T16:32:31.498Z,11.18
2023-04-26T16:35:11.657Z,11.42
2023-04-26T16:37:40.688Z,11.62
2023-04-26T16:40:13.458Z,11.69
2023-04-26T16:42:46.089Z,11.65
2023-04-26T16:45:21.483Z,11.68
2023-04-26T16:47:52.246Z,11.76
2023-04-26T16:50:23.621Z,11.76
2023-04-26T16:52:56.815Z,11.79
2023-04-26T16:55:26.904Z,11.83
2023-04-26T16:57:56.135Z,11.83
2023-04-26T17:00:45.086Z,11.80
2023-04-26T17:10:34.401Z,11.33
2023-04-26T17:14:02.104Z,11.15
2023-04-26T17:16:51.598Z,11.02
2023-04-26T17:19:45.137Z,10.87
2023-04-26T17:22:15.573Z,10.73
2023-04-26T17:25:07.715Z,10.48
2023-04-26T17:27:38.336Z,10.27
2023-04-26T17:30:09.729Z,10.05
2023-04-26T17:33:01.707Z,9.77
2023-04-26T17:35:54.638Z,9.30
2023-04-26T17:39:19.507Z,9.08
2023-04-26T17:42:13.726Z,8.96
2023-04-26T17:45:20.466Z,8.73
2023-04-26T17:48:21.706Z,8.47
2023-04-26T17:51:05.726Z,8.21
2023-04-26T17:53:34.714Z,7.86
2023-04-26T17:56:08.703Z,7.63
2023-04-26T17:58:37.561Z,7.39
2023-04-26T18:01:07.376Z,7.14
2023-04-26T18:03:53.222Z,6.91
2023-04-26T18:06:26.475Z,6.73
2023-04-26T18:08:56.220Z,6.57
2023-04-26T18:11:26.967Z,6.40
2023-04-26T18:13:56.837Z,6.23
2023-04-26T18:16:26.197Z,6.12
2023-04-26T18:18:55.351Z,6.05
2023-04-26T18:21:25.196Z,5.98
2023-04-26T18:24:05.087Z,5.88
2023-04-26T18:26:37.269Z,5.66
2023-04-26T18:29:07.244Z,5.52
2023-04-26T18:31:38.889Z,5.47
2023-04-26T18:34:09.335Z,5.40
2023-04-26T18:36:37.392Z,5.37
2023-04-26T18:39:09.167Z,5.37
2023-04-26T18:41:39.341Z,5.39
2023-04-26T18:44:18.334Z,5.43
2023-04-26T18:46:46.637Z,5.41
2023-04-26T18:49:14.874Z,5.42
2023-04-26T18:51:44.396Z,5.37
2023-04-26T18:54:31.804Z,5.31
2023-04-26T18:57:03.962Z,5.29
2023-04-26T18:59:42.200Z,5.32
2023-04-26T19:02:11.143Z,5.33
2023-04-26T19:04:41.123Z,5.22
2023-04-26T19:07:12.161Z,5.02
2023-04-26T19:09:53.109Z,4.86
2023-04-26T19:12:26.451Z,4.69
2023-04-26T19:14:59.287Z,4.57
2023-04-26T19:17:33.015Z,4.45
2023-04-26T19:20:09.015Z,4.35
2023-04-26T19:22:40.722Z,4.25
2023-04-26T19:25:11.708Z,4.13
2023-04-26T19:27:40.871Z,4.00
2023-04-26T19:30:11.048Z,3.87
2023-04-26T19:32:41.456Z,3.73
2023-04-26T19:35:11.955Z,3.67
2023-04-26T19:37:49.954Z,3.61
2023-04-26T19:40:19.605Z,3.51
2023-04-26T19:43:02.126Z,3.47
2023-04-26T19:45:36.947Z,3.47
2023-04-26T19:48:09.283Z,3.46
2023-04-26T19:50:44.199Z,3.47
2023-04-26T19:53:22.275Z,3.44
2023-04-26T19:55:52.238Z,3.41
2023-04-26T19:58:25.772Z,3.37
2023-04-26T20:00:57.495Z,3.32
2023-04-26T20:03:29.647Z,3.27
2023-04-26T20:06:03.811Z,3.23
2023-04-26T20:08:37.512Z,3.10
2023-04-26T20:11:07.339Z,2.99
2023-04-26T20:13:38.876Z,2.89
2023-04-26T20:16:11.674Z,2.79
2023-04-26T20:18:45.514Z,2.69
2023-04-26T20:21:23.081Z,2.59
2023-04-26T20:23:56.032Z,2.49
2023-04-26T20:26:26.356Z,2.41
2023-04-26T20:29:01.650Z,2.32
2023-04-26T20:31:49.482Z,2.23
2023-04-26T20:34:30.611Z,2.12
2023-04-26T20:37:02.030Z,2.04
2023-04-26T20:39:45.367Z,2.01
2023-04-26T20:42:15.575Z,1.99
2023-04-26T20:44:46.476Z,1.92
2023-04-26T20:47:16.362Z,1.86
2023-04-26T20:49:44.206Z,1.79
2023-04-26T20:52:13.551Z,1.76
2023-04-26T20:54:42.303Z,1.77
2023-04-26T20:57:12.152Z,1.75
2023-04-26T20:59:43.977Z,1.71
2023-04-26T21:02:14.279Z,1.67
2023-04-26T21:04:46.653Z,1.66
2023-04-26T21:07:14.834Z,1.64
2023-04-26T21:09:47.177Z,1.60
2023-04-26T21:12:15.194Z,1.57
2023-04-26T21:14:48.831Z,1.53
2023-04-26T21:17:16.945Z,1.49
2023-04-26T21:19:46.527Z,1.48
2023-04-26T21:22:16.578Z,1.46
2023-04-26T21:24:47.618Z,1.43
2023-04-26T21:27:17.562Z,1.39
2023-04-26T21:29:45.040Z,1.35
2023-04-26T21:32:14.931Z,1.32
2023-04-26T21:34:45.421Z,1.31
2023-04-26T21:37:16.280Z,1.30
2023-04-26T21:39:46.275Z,1.27
2023-04-26T21:42:15.751Z,1.25
2023-04-26T21:44:44.102Z,1.25
2023-04-26T21:47:12.573Z,1.24
2023-04-26T21:49:40.891Z,1.25
2023-04-26T21:52:09.831Z,1.24
2023-04-26T21:54:39.284Z,1.22
2023-04-26T21:57:08.094Z,1.19
2023-04-26T21:59:36.153Z,1.16
2023-04-26T22:02:06.565Z,1.12
2023-04-26T22:04:36.933Z,1.07
2023-04-26T22:07:06.930Z,1.03
2023-04-26T22:09:38.579Z,0.99
2023-04-26T22:12:07.081Z,0.99
2023-04-26T22:14:37.846Z,1.01
2023-04-26T22:17:07.881Z,1.02
2023-04-26T22:19:36.567Z,1.03
2023-04-26T22:22:04.295Z,1.03
2023-04-26T22:24:32.951Z,1.00
2023-04-26T22:27:02.350Z,0.95
2023-04-26T22:29:31.594Z,0.89
2023-04-26T22:31:59.640Z,0.84
2023-04-26T22:34:28.838Z,0.81
2023-04-26T22:37:13.296Z,0.77
2023-04-26T22:39:49.935Z,0.73
2023-04-26T22:42:19.316Z,0.70
2023-04-26T22:44:49.917Z,0.66
2023-04-26T22:47:18.758Z,0.62
2023-04-26T22:49:50.074Z,0.62
2023-04-26T22:52:28.284Z,0.61
2023-04-26T22:55:03.840Z,0.59
2023-04-26T22:57:33.462Z,0.59
2023-04-26T23:00:04.112Z,0.59
2023-04-26T23:02:33.975Z,0.60
2023-04-26T23:05:04.767Z,0.60
2023-04-26T23:07:48.460Z,0.62
2023-04-26T23:10:19.892Z,0.65
2023-04-26T23:12:50.057Z,0.67
2023-04-26T23:15:19.387Z,0.68
2023-04-26T23:17:53.589Z,0.67
2023-04-26T23:20:22.927Z,0.68
2023-04-26T23:22:54.366Z,0.69
2023-04-26T23:25:25.267Z,0.69
2023-04-26T23:27:55.114Z,0.68
2023-04-26T23:30:25.762Z,0.66
2023-04-26T23:32:55.785Z,0.66
2023-04-26T23:35:24.987Z,0.63
2023-04-26T23:37:54.134Z,0.61
2023-04-26T23:40:23.733Z,0.58
2023-04-26T23:42:55.264Z,0.56
2023-04-26T23:45:24.311Z,0.56
2023-04-26T23:47:53.706Z,0.55
2023-04-26T23:50:25.633Z,0.53
2023-04-26T23:52:55.520Z,0.53
2023-04-26T23:55:26.509Z,0.49
2023-04-26T23:57:54.249Z,0.46
